Time;durP1;ratioP1;P1;durP2;ratioP2;P2;SDS_P1;SDS_P2;PMS_P1;PMS_P2;Temp;Humidity;BMP_temperature;BMP_pressure;BME280_temperature;BME280_humidity;BME280_pressure;Samples;Min_cycle;Max_cycle;Signal;HPM_P1;HPM_P2
2023/10/22 00:00:15;;;;;;;;;;;11.60;85.50;;;;;;5060195;28;20007;-56
2023/10/22 00:02:41;;;;;;;;;;;11.60;85.60;;;;;;5067027;28;19912;-53
2023/10/22 00:05:13;;;;;;;;;;;11.60;85.50;;;;;;5068734;28;19908;-54
2023/10/22 00:07:40;;;;;;;;;;;11.60;85.70;;;;;;5054170;28;19908;-53
2023/10/22 00:10:09;;;;;;;;;;;11.60;85.70;;;;;;5069653;28;19912;-55
2023/10/22 00:12:36;;;;;;;;;;;11.60;85.70;;;;;;5073608;28;19916;-56
2023/10/22 00:15:06;;;;;;;;;;;11.60;85.80;;;;;;5052096;28;19916;-52
2023/10/22 00:17:31;;;;;;;;;;;11.70;85.60;;;;;;5031421;28;19925;-54
2023/10/22 00:19:57;;;;;;;;;;;11.70;85.40;;;;;;5034895;28;19912;-54
2023/10/22 00:22:24;;;;;;;;;;;11.80;85.40;;;;;;5052378;28;20003;-54
2023/10/22 00:24:50;;;;;;;;;;;11.90;84.90;;;;;;5041806;28;19909;-52
2023/10/22 00:27:16;;;;;;;;;;;11.80;85.00;;;;;;5053305;28;19905;-56
2023/10/22 00:29:44;;;;;;;;;;;11.80;85.10;;;;;;5050917;28;19917;-53
2023/10/22 00:32:10;;;;;;;;;;;11.80;85.00;;;;;;5052768;28;19904;-50
2023/10/22 00:34:43;;;;;;;;;;;11.80;84.70;;;;;;5047836;28;19971;-55
2023/10/22 00:37:18;;;;;;;;;;;11.80;84.70;;;;;;5053279;28;20334;-54
2023/10/22 00:39:43;;;;;;;;;;;11.90;84.50;;;;;;5053203;28;19919;-53
2023/10/22 00:42:10;;;;;;;;;;;11.80;84.70;;;;;;5050949;28;19912;-54
2023/10/22 00:44:37;;;;;;;;;;;11.80;84.60;;;;;;5050855;28;19923;-55
2023/10/22 00:47:03;;;;;;;;;;;11.80;84.40;;;;;;5051923;28;19947;-53
2023/10/22 00:49:29;;;;;;;;;;;11.80;84.20;;;;;;5052117;28;19912;-54
2023/10/22 00:51:56;;;;;;;;;;;11.80;84.10;;;;;;5052552;28;19916;-52
2023/10/22 00:54:22;;;;;;;;;;;11.80;84.00;;;;;;5034770;28;20269;-53
2023/10/22 00:56:50;;;;;;;;;;;11.80;84.10;;;;;;5032595;28;19913;-54
2023/10/22 00:59:26;;;;;;;;;;;11.70;84.30;;;;;;5049269;28;19912;-54
2023/10/22 01:01:56;;;;;;;;;;;11.70;84.20;;;;;;5052219;28;19916;-51
2023/10/22 01:04:23;;;;;;;;;;;11.70;84.00;;;;;;5052726;28;20364;-51
2023/10/22 01:06:53;;;;;;;;;;;11.70;84.00;;;;;;5041310;28;19909;-53
2023/10/22 01:09:22;;;;;;;;;;;11.70;84.10;;;;;;5033183;28;20250;-48
2023/10/22 01:11:58;;;;;;;;;;;11.70;84.10;;;;;;5032826;28;19905;-49
2023/10/22 01:14:25;;;;;;;;;;;11.60;84.20;;;;;;5061678;28;20589;-48
2023/10/22 01:16:55;;;;;;;;;;;11.70;84.10;;;;;;5072526;28;19912;-48
2023/10/22 01:19:23;;;;;;;;;;;11.70;84.00;;;;;;5067307;28;19926;-48
2023/10/22 01:21:50;;;;;;;;;;;11.70;84.10;;;;;;5069483;28;20262;-49
2023/10/22 01:24:17;;;;;;;;;;;11.60;84.30;;;;;;5067917;28;19916;-48
2023/10/22 01:26:44;;;;;;;;;;;11.60;84.40;;;;;;5070628;28;19916;-50
2023/10/22 01:29:11;;;;;;;;;;;11.50;84.70;;;;;;5070755;28;19951;-48
2023/10/22 01:31:38;;;;;;;;;;;11.50;84.80;;;;;;5071704;28;19905;-48
2023/10/22 01:34:04;;;;;;;;;;;11.40;84.90;;;;;;5070233;28;19913;-49
2023/10/22 01:36:31;;;;;;;;;;;11.40;85.10;;;;;;5071699;28;19912;-48
2023/10/22 01:38:58;;;;;;;;;;;11.40;85.10;;;;;;5072803;28;19920;-49
2023/10/22 01:41:25;;;;;;;;;;;11.40;85.00;;;;;;5058365;28;20390;-48
2023/10/22 01:43:53;;;;;;;;;;;11.40;84.90;;;;;;5070066;28;19919;-48
2023/10/22 01:46:22;;;;;;;;;;;11.40;85.20;;;;;;5062518;28;20326;-49
2023/10/22 01:48:50;;;;;;;;;;;11.50;85.10;;;;;;5058722;28;19919;-49
2023/10/22 01:51:20;;;;;;;;;;;11.40;85.00;;;;;;5058401;28;19905;-48
2023/10/22 01:53:46;;;;;;;;;;;11.40;85.00;;;;;;5075389;28;20381;-50
2023/10/22 01:56:12;;;;;;;;;;;11.40;85.10;;;;;;5076250;28;19993;-48
2023/10/22 01:58:38;;;;;;;;;;;11.40;85.10;;;;;;5061174;28;19923;-49
2023/10/22 02:01:05;;;;;;;;;;;11.40;85.20;;;;;;5056171;28;20233;-49
2023/10/22 02:03:33;;;;;;;;;;;11.40;85.10;;;;;;5058996;28;19919;-48
2023/10/22 02:06:02;;;;;;;;;;;11.40;85.10;;;;;;5076208;28;19905;-48
2023/10/22 02:08:29;;;;;;;;;;;11.40;85.20;;;;;;5059728;28;19920;-49
2023/10/22 02:10:54;;;;;;;;;;;11.40;85.20;;;;;;5055771;28;19908;-48
2023/10/22 02:13:21;;;;;;;;;;;11.30;85.20;;;;;;5054518;28;20230;-51
2023/10/22 02:15:48;;;;;;;;;;;11.40;85.10;;;;;;5057163;28;19955;-50
2023/10/22 02:18:16;;;;;;;;;;;11.40;85.10;;;;;;5076018;28;19920;-48
2023/10/22 02:20:52;;;;;;;;;;;11.30;85.10;;;;;;5061683;28;19995;-51
2023/10/22 02:23:19;;;;;;;;;;;11.30;85.30;;;;;;5062707;28;19912;-50
2023/10/22 02:25:49;;;;;;;;;;;11.20;85.40;;;;;;5073963;28;20333;-48
2023/10/22 02:28:16;;;;;;;;;;;11.30;85.20;;;;;;5074381;28;19915;-48
2023/10/22 02:30:43;;;;;;;;;;;11.20;85.30;;;;;;5070627;28;19913;-51
2023/10/22 02:33:08;;;;;;;;;;;11.20;85.40;;;;;;5064304;28;19939;-50
2023/10/22 02:35:44;;;;;;;;;;;11.20;85.50;;;;;;5073626;28;19970;-49
2023/10/22 02:38:14;;;;;;;;;;;11.20;85.60;;;;;;5072971;28;19916;-50
2023/10/22 02:40:43;;;;;;;;;;;11.10;85.80;;;;;;5070784;28;19939;-49
2023/10/22 02:43:09;;;;;;;;;;;11.10;85.80;;;;;;5055142;28;19909;-48
2023/10/22 02:45:36;;;;;;;;;;;11.10;86.00;;;;;;5069769;28;19923;-48
2023/10/22 02:48:03;;;;;;;;;;;11.00;86.30;;;;;;5062910;28;19912;-49
2023/10/22 02:50:28;;;;;;;;;;;11.00;86.60;;;;;;5074569;28;19958;-49
2023/10/22 02:52:55;;;;;;;;;;;11.00;86.50;;;;;;5073735;28;20301;-48
2023/10/22 02:55:22;;;;;;;;;;;11.10;86.60;;;;;;5072262;28;19908;-49
2023/10/22 02:57:50;;;;;;;;;;;11.10;86.50;;;;;;5074889;28;20316;-48
2023/10/22 03:00:16;;;;;;;;;;;11.10;86.50;;;;;;5069758;28;20003;-53
2023/10/22 03:02:43;;;;;;;;;;;11.10;86.50;;;;;;5074485;28;20066;-50
2023/10/22 03:05:10;;;;;;;;;;;11.20;86.40;;;;;;5072271;28;19915;-49
2023/10/22 03:07:38;;;;;;;;;;;11.20;86.30;;;;;;5068304;28;19955;-51
2023/10/22 03:10:04;;;;;;;;;;;11.10;86.50;;;;;;5071897;28;19916;-50
2023/10/22 03:12:32;;;;;;;;;;;11.10;86.40;;;;;;5071490;28;19912;-48
2023/10/22 03:15:00;;;;;;;;;;;11.10;86.40;;;;;;5072916;28;19920;-48
2023/10/22 03:17:26;;;;;;;;;;;11.10;86.40;;;;;;5070179;28;19913;-48
2023/10/22 03:19:53;;;;;;;;;;;11.10;86.50;;;;;;5073019;28;19997;-48
2023/10/22 03:22:20;;;;;;;;;;;11.10;86.60;;;;;;5066039;28;19953;-49
2023/10/22 03:24:51;;;;;;;;;;;11.10;86.70;;;;;;5069365;28;19987;-48
2023/10/22 03:27:20;;;;;;;;;;;11.20;86.70;;;;;;5071282;28;19916;-48
2023/10/22 03:29:47;;;;;;;;;;;11.10;86.60;;;;;;5070810;28;19938;-50
2023/10/22 03:32:12;;;;;;;;;;;11.20;86.50;;;;;;5064662;28;19919;-49
2023/10/22 03:34:40;;;;;;;;;;;11.20;86.30;;;;;;5073145;28;19912;-48
2023/10/22 03:37:08;;;;;;;;;;;11.20;86.30;;;;;;5059019;28;19912;-48
2023/10/22 03:39:34;;;;;;;;;;;11.30;86.20;;;;;;5071791;28;20248;-51
2023/10/22 03:42:00;;;;;;;;;;;11.40;86.10;;;;;;5072665;28;20608;-48
2023/10/22 03:44:29;;;;;;;;;;;11.40;86.00;;;;;;5070906;28;19963;-49
2023/10/22 03:46:56;;;;;;;;;;;11.40;85.90;;;;;;5071603;28;20304;-48
2023/10/22 03:49:21;;;;;;;;;;;11.40;85.60;;;;;;5074100;28;20009;-51
2023/10/22 03:51:48;;;;;;;;;;;11.40;85.70;;;;;;5071539;28;19999;-51
2023/10/22 03:54:13;;;;;;;;;;;11.50;85.80;;;;;;5071691;28;19944;-48
2023/10/22 03:56:39;;;;;;;;;;;11.50;85.70;;;;;;5071421;28;20333;-49
2023/10/22 03:59:06;;;;;;;;;;;11.50;85.80;;;;;;5072619;28;19916;-50
2023/10/22 04:01:34;;;;;;;;;;;11.50;85.70;;;;;;5059322;28;19927;-51
2023/10/22 04:04:00;;;;;;;;;;;11.60;85.50;;;;;;5069491;28;19904;-49
2023/10/22 04:06:27;;;;;;;;;;;11.50;85.50;;;;;;5073717;28;19904;-49
2023/10/22 04:08:53;;;;;;;;;;;11.60;85.40;;;;;;5069391;28;19932;-48
2023/10/22 04:11:20;;;;;;;;;;;11.60;85.50;;;;;;5054790;28;19909;-49
2023/10/22 04:13:47;;;;;;;;;;;11.60;85.50;;;;;;5054314;28;19917;-49
2023/10/22 04:16:17;;;;;;;;;;;11.60;85.40;;;;;;5069624;28;19908;-49
2023/10/22 04:18:42;;;;;;;;;;;11.60;85.40;;;;;;5071856;28;19935;-50
2023/10/22 04:21:16;;;;;;;;;;;11.60;85.60;;;;;;5073790;28;19904;-49
2023/10/22 04:23:43;;;;;;;;;;;11.50;85.60;;;;;;5072683;28;19909;-52
2023/10/22 04:26:14;;;;;;;;;;;11.60;85.50;;;;;;5070040;28;20357;-50
2023/10/22 04:28:42;;;;;;;;;;;11.60;85.50;;;;;;5073143;28;20455;-53
2023/10/22 04:31:09;;;;;;;;;;;11.60;85.50;;;;;;5059929;28;19924;-51
2023/10/22 04:33:37;;;;;;;;;;;11.60;85.70;;;;;;5068242;28;20273;-49
2023/10/22 04:36:03;;;;;;;;;;;11.70;85.60;;;;;;5066911;28;20011;-51
2023/10/22 04:38:40;;;;;;;;;;;11.70;85.40;;;;;;5068018;28;20366;-48
2023/10/22 04:41:10;;;;;;;;;;;11.70;85.10;;;;;;5068580;28;19928;-48
2023/10/22 04:43:36;;;;;;;;;;;11.80;85.20;;;;;;5057803;28;19908;-49
2023/10/22 04:46:01;;;;;;;;;;;11.80;85.20;;;;;;5060348;28;20269;-48
2023/10/22 04:48:28;;;;;;;;;;;11.90;85.20;;;;;;5071957;28;19904;-51
2023/10/22 04:50:59;;;;;;;;;;;11.90;85.20;;;;;;5060733;28;19923;-50
2023/10/22 04:53:26;;;;;;;;;;;11.80;85.30;;;;;;5058314;28;19908;-49
2023/10/22 04:55:58;;;;;;;;;;;11.90;85.20;;;;;;5070859;28;19912;-50
2023/10/22 04:58:25;;;;;;;;;;;11.80;85.30;;;;;;5058183;28;19916;-49
2023/10/22 05:00:51;;;;;;;;;;;11.80;85.30;;;;;;5070982;28;19983;-49
2023/10/22 05:03:18;;;;;;;;;;;11.80;85.20;;;;;;5071030;28;19923;-53
2023/10/22 05:05:44;;;;;;;;;;;11.80;85.10;;;;;;5069510;28;19918;-49
2023/10/22 05:08:13;;;;;;;;;;;11.80;85.10;;;;;;5071459;28;19913;-49
2023/10/22 05:10:40;;;;;;;;;;;11.80;85.20;;;;;;5070169;28;19951;-55
2023/10/22 05:13:08;;;;;;;;;;;11.80;85.20;;;;;;5071199;28;19922;-50
2023/10/22 05:15:33;;;;;;;;;;;11.80;85.10;;;;;;5070769;28;19913;-51
2023/10/22 05:17:59;;;;;;;;;;;11.80;85.30;;;;;;5065190;28;19912;-51
2023/10/22 05:20:28;;;;;;;;;;;11.70;85.40;;;;;;5070078;28;20011;-53
2023/10/22 05:22:55;;;;;;;;;;;11.70;85.50;;;;;;5068614;28;19912;-55
2023/10/22 05:25:21;;;;;;;;;;;11.70;85.50;;;;;;5069078;28;19970;-50
2023/10/22 05:27:46;;;;;;;;;;;11.70;85.60;;;;;;5069099;28;20295;-49
2023/10/22 05:30:13;;;;;;;;;;;11.70;85.70;;;;;;5069823;28;20327;-54
2023/10/22 05:32:39;;;;;;;;;;;11.70;85.70;;;;;;5072174;28;19966;-49
2023/10/22 05:35:06;;;;;;;;;;;11.70;85.70;;;;;;5070196;28;19962;-48
2023/10/22 05:37:33;;;;;;;;;;;11.70;85.80;;;;;;5068686;28;19912;-52
2023/10/22 05:39:59;;;;;;;;;;;11.60;85.90;;;;;;5067759;28;19913;-49
2023/10/22 05:42:25;;;;;;;;;;;11.60;86.10;;;;;;5071794;28;20195;-54
2023/10/22 05:44:52;;;;;;;;;;;11.60;86.10;;;;;;5066062;28;19935;-52
2023/10/22 05:47:22;;;;;;;;;;;11.60;86.20;;;;;;5070794;28;19934;-52
2023/10/22 05:49:49;;;;;;;;;;;11.60;86.20;;;;;;5069420;28;19912;-51
2023/10/22 05:52:16;;;;;;;;;;;11.60;86.30;;;;;;5072049;28;19939;-52
2023/10/22 05:54:42;;;;;;;;;;;11.60;86.30;;;;;;5061875;28;19909;-49
2023/10/22 05:57:07;;;;;;;;;;;11.60;86.50;;;;;;5067070;28;19918;-49
2023/10/22 05:59:34;;;;;;;;;;;11.60;86.50;;;;;;5063155;28;19909;-48
2023/10/22 06:02:02;;;;;;;;;;;11.60;86.60;;;;;;5069804;28;19966;-50
2023/10/22 06:04:29;;;;;;;;;;;11.50;86.60;;;;;;5069149;28;19904;-51
2023/10/22 06:06:54;;;;;;;;;;;11.50;86.80;;;;;;5069280;28;19913;-53
2023/10/22 06:09:23;;;;;;;;;;;11.50;86.80;;;;;;5068345;28;19959;-54
2023/10/22 06:11:50;;;;;;;;;;;11.50;86.80;;;;;;5071245;28;19912;-50
2023/10/22 06:14:17;;;;;;;;;;;11.50;86.90;;;;;;5057501;28;20003;-50
2023/10/22 06:16:43;;;;;;;;;;;11.60;87.00;;;;;;5049033;28;20342;-50
2023/10/22 06:19:09;;;;;;;;;;;11.50;87.20;;;;;;5053641;28;19921;-53
2023/10/22 06:21:35;;;;;;;;;;;11.50;87.30;;;;;;5048814;28;19966;-49
2023/10/22 06:24:01;;;;;;;;;;;11.50;87.30;;;;;;5049484;28;20230;-49
2023/10/22 06:26:27;;;;;;;;;;;11.60;87.30;;;;;;5051473;28;20342;-48
2023/10/22 06:28:53;;;;;;;;;;;11.60;87.60;;;;;;5049428;28;19943;-54
2023/10/22 06:31:19;;;;;;;;;;;11.60;87.70;;;;;;5040153;28;19912;-48
2023/10/22 06:33:49;;;;;;;;;;;11.70;87.90;;;;;;5058512;28;19979;-54
2023/10/22 06:36:18;;;;;;;;;;;11.70;87.60;;;;;;5050862;28;19912;-52
2023/10/22 06:38:46;;;;;;;;;;;11.80;88.10;;;;;;5036062;28;19916;-49
2023/10/22 06:41:19;;;;;;;;;;;11.90;89.30;;;;;;5049500;28;19919;-51
2023/10/22 06:43:47;;;;;;;;;;;11.90;89.90;;;;;;5036859;28;19943;-54
2023/10/22 06:46:17;;;;;;;;;;;11.90;90.30;;;;;;5046429;28;20362;-52
2023/10/22 06:48:44;;;;;;;;;;;11.90;91.00;;;;;;5042848;28;19928;-52
2023/10/22 06:51:18;;;;;;;;;;;11.90;91.50;;;;;;5060571;28;19916;-54
2023/10/22 06:53:44;;;;;;;;;;;11.90;91.80;;;;;;5052232;28;20247;-48
2023/10/22 06:56:11;;;;;;;;;;;11.80;92.10;;;;;;5045655;28;20454;-50
2023/10/22 06:58:41;;;;;;;;;;;11.80;92.30;;;;;;5049714;28;20002;-45
2023/10/22 07:01:10;;;;;;;;;;;11.90;92.50;;;;;;5052116;28;19916;-43
2023/10/22 07:03:42;;;;;;;;;;;11.80;92.70;;;;;;5050309;28;20210;-44
2023/10/22 07:06:10;;;;;;;;;;;11.80;92.90;;;;;;5052612;28;19909;-47
2023/10/22 07:08:36;;;;;;;;;;;11.70;93.20;;;;;;5031258;28;20305;-47
2023/10/22 07:11:02;;;;;;;;;;;11.70;93.40;;;;;;5052507;28;19991;-52
2023/10/22 07:13:29;;;;;;;;;;;11.70;93.80;;;;;;5054212;28;19908;-48
2023/10/22 07:15:58;;;;;;;;;;;11.70;94.00;;;;;;5049795;28;20018;-47
2023/10/22 07:18:24;;;;;;;;;;;11.60;94.20;;;;;;5049994;28;20218;-48
2023/10/22 07:20:49;;;;;;;;;;;11.70;94.40;;;;;;5051481;28;19923;-49
2023/10/22 07:23:15;;;;;;;;;;;11.70;94.60;;;;;;5033983;28;19927;-50
2023/10/22 07:25:43;;;;;;;;;;;11.70;94.70;;;;;;5052021;28;19939;-55
2023/10/22 07:28:12;;;;;;;;;;;11.70;94.90;;;;;;5035397;28;20003;-48
2023/10/22 07:30:45;;;;;;;;;;;11.70;95.00;;;;;;5049318;28;19908;-47
2023/10/22 07:33:11;;;;;;;;;;;11.70;95.10;;;;;;5051465;28;19908;-46
2023/10/22 07:35:37;;;;;;;;;;;11.70;95.30;;;;;;5051583;28;19916;-48
2023/10/22 07:38:03;;;;;;;;;;;11.80;95.40;;;;;;5052694;28;20273;-49
2023/10/22 07:40:28;;;;;;;;;;;11.80;95.50;;;;;;5049927;28;19912;-51
2023/10/22 07:42:55;;;;;;;;;;;11.80;95.50;;;;;;5051311;28;19913;-46
2023/10/22 07:45:23;;;;;;;;;;;11.80;95.60;;;;;;5052387;28;19912;-46
2023/10/22 07:47:50;;;;;;;;;;;11.80;95.60;;;;;;5046442;28;19909;-47
2023/10/22 07:50:15;;;;;;;;;;;11.90;95.70;;;;;;5053265;28;19908;-46
2023/10/22 07:52:40;;;;;;;;;;;11.80;95.70;;;;;;5053541;28;20019;-49
2023/10/22 07:55:07;;;;;;;;;;;11.90;95.80;;;;;;5050469;28;20003;-51
2023/10/22 07:57:33;;;;;;;;;;;11.90;95.80;;;;;;5052068;28;20352;-46
2023/10/22 08:00:06;;;;;;;;;;;11.90;95.80;;;;;;5043287;28;19924;-49
2023/10/22 08:02:33;;;;;;;;;;;11.90;95.90;;;;;;5050035;28;19915;-50
2023/10/22 08:05:00;;;;;;;;;;;11.90;95.90;;;;;;5035157;28;20337;-47
2023/10/22 08:07:26;;;;;;;;;;;11.90;95.90;;;;;;5052798;28;20408;-46
2023/10/22 08:09:52;;;;;;;;;;;12.00;96.00;;;;;;5052335;28;19951;-49
2023/10/22 08:12:18;;;;;;;;;;;12.00;96.00;;;;;;5040587;28;19908;-50
2023/10/22 08:14:44;;;;;;;;;;;12.10;96.00;;;;;;5067360;28;20511;-45
2023/10/22 08:17:10;;;;;;;;;;;12.10;96.00;;;;;;5071095;28;19914;-47
2023/10/22 08:19:35;;;;;;;;;;;12.20;96.10;;;;;;5067737;28;19921;-48
2023/10/22 08:22:01;;;;;;;;;;;12.20;96.00;;;;;;5071776;28;19915;-54
2023/10/22 08:24:27;;;;;;;;;;;12.20;96.00;;;;;;5063582;28;19916;-48
2023/10/22 08:26:55;;;;;;;;;;;12.20;96.00;;;;;;5073006;28;20332;-47
2023/10/22 08:29:21;;;;;;;;;;;12.20;96.00;;;;;;5064661;28;19908;-47
2023/10/22 08:31:49;;;;;;;;;;;12.20;95.90;;;;;;5071646;28;20359;-47
2023/10/22 08:34:14;;;;;;;;;;;12.10;95.80;;;;;;5071392;28;19919;-50
2023/10/22 08:36:41;;;;;;;;;;;12.20;95.80;;;;;;5068540;28;19912;-47
2023/10/22 08:39:09;;;;;;;;;;;12.10;95.70;;;;;;5071223;28;19916;-52
2023/10/22 08:41:45;;;;;;;;;;;12.10;95.70;;;;;;5071669;28;19912;-51
2023/10/22 08:44:14;;;;;;;;;;;12.00;95.70;;;;;;5066724;28;20356;-51
2023/10/22 08:46:40;;;;;;;;;;;12.00;95.80;;;;;;5071484;28;19913;-52
2023/10/22 08:49:09;;;;;;;;;;;12.00;95.80;;;;;;5072385;28;19999;-50
2023/10/22 08:51:35;;;;;;;;;;;12.10;95.70;;;;;;5069317;28;19930;-55
2023/10/22 08:54:04;;;;;;;;;;;12.00;95.70;;;;;;5066633;28;20525;-52
2023/10/22 08:56:36;;;;;;;;;;;12.00;95.70;;;;;;5068262;28;19966;-47
2023/10/22 08:59:02;;;;;;;;;;;12.10;95.80;;;;;;5071406;28;19957;-48
2023/10/22 09:01:29;;;;;;;;;;;12.10;95.80;;;;;;5070392;28;20238;-48
2023/10/22 09:03:57;;;;;;;;;;;12.20;95.80;;;;;;5068487;28;19912;-49
2023/10/22 09:06:24;;;;;;;;;;;12.20;95.60;;;;;;5071282;28;19912;-53
2023/10/22 09:08:52;;;;;;;;;;;12.30;95.70;;;;;;5063181;28;19908;-49
2023/10/22 09:11:20;;;;;;;;;;;12.30;95.60;;;;;;5067769;28;19912;-55
2023/10/22 09:13:48;;;;;;;;;;;12.30;95.50;;;;;;5072287;28;19920;-55
2023/10/22 09:16:39;;;;;;;;;;;12.30;95.30;;;;;;5072772;28;20229;-55
2023/10/22 09:19:04;;;;;;;;;;;12.30;95.20;;;;;;5070433;28;19927;-50
2023/10/22 09:21:48;;;;;;;;;;;12.20;95.00;;;;;;5065044;28;20249;-48
2023/10/22 09:24:14;;;;;;;;;;;12.20;94.80;;;;;;5059500;28;19920;-53
2023/10/22 09:26:46;;;;;;;;;;;12.20;94.70;;;;;;5069635;28;19910;-50
2023/10/22 09:29:14;;;;;;;;;;;12.20;94.70;;;;;;5070760;28;20335;-51
2023/10/22 09:31:53;;;;;;;;;;;12.20;94.70;;;;;;5065127;28;19966;-54
2023/10/22 09:34:30;;;;;;;;;;;12.20;94.70;;;;;;5060840;28;19970;-47
2023/10/22 09:36:58;;;;;;;;;;;12.30;94.60;;;;;;5070163;28;19999;-49
2023/10/22 09:39:43;;;;;;;;;;;12.40;94.50;;;;;;5071846;28;19908;-48
2023/10/22 09:42:11;;;;;;;;;;;12.40;94.40;;;;;;5068369;28;19940;-48
2023/10/22 09:44:37;;;;;;;;;;;12.50;94.30;;;;;;5066656;28;19917;-50
2023/10/22 09:47:05;;;;;;;;;;;12.60;94.20;;;;;;5071798;28;19909;-49
2023/10/22 09:49:33;;;;;;;;;;;12.70;94.20;;;;;;5070485;28;19913;-47
2023/10/22 09:52:03;;;;;;;;;;;12.90;93.90;;;;;;5072119;28;19967;-47
2023/10/22 09:54:37;;;;;;;;;;;12.90;93.60;;;;;;5060283;28;20380;-48
2023/10/22 09:57:06;;;;;;;;;;;12.90;93.50;;;;;;5064092;28;19916;-52
2023/10/22 09:59:34;;;;;;;;;;;12.90;93.00;;;;;;5067110;28;19923;-50
2023/10/22 10:02:02;;;;;;;;;;;12.90;92.70;;;;;;5069939;28;19920;-52
2023/10/22 10:04:31;;;;;;;;;;;13.00;92.70;;;;;;5069552;28;20017;-51
2023/10/22 10:06:57;;;;;;;;;;;13.00;92.60;;;;;;5068942;28;19931;-51
2023/10/22 10:09:31;;;;;;;;;;;13.10;92.40;;;;;;5063036;28;19928;-53
2023/10/22 10:12:01;;;;;;;;;;;13.10;92.00;;;;;;5072422;28;19952;-54
2023/10/22 10:14:42;;;;;;;;;;;13.10;91.90;;;;;;5075484;28;19923;-53
2023/10/22 10:17:11;;;;;;;;;;;13.20;91.90;;;;;;5065612;28;19908;-53
2023/10/22 10:19:38;;;;;;;;;;;13.20;91.70;;;;;;5075268;28;19999;-54
2023/10/22 10:22:04;;;;;;;;;;;13.10;91.00;;;;;;5075493;28;19951;-52
2023/10/22 10:24:40;;;;;;;;;;;13.10;91.30;;;;;;5060085;28;20318;-49
2023/10/22 10:27:08;;;;;;;;;;;13.20;91.40;;;;;;5062082;28;19918;-52
2023/10/22 10:29:35;;;;;;;;;;;13.20;91.00;;;;;;5074836;28;19920;-54
2023/10/22 10:32:19;;;;;;;;;;;13.20;90.70;;;;;;5073089;28;20286;-53
2023/10/22 10:34:49;;;;;;;;;;;13.20;90.80;;;;;;5074741;28;20015;-53
2023/10/22 10:37:21;;;;;;;;;;;13.20;90.70;;;;;;5072941;28;19925;-53
2023/10/22 10:39:51;;;;;;;;;;;13.30;90.80;;;;;;5065855;28;19912;-55
2023/10/22 10:42:29;;;;;;;;;;;13.40;91.00;;;;;;5059725;28;19908;-55
2023/10/22 10:44:57;;;;;;;;;;;13.40;90.80;;;;;;5072970;28;19934;-53
2023/10/22 10:47:25;;;;;;;;;;;13.40;90.40;;;;;;5074402;28;20264;-51
2023/10/22 10:49:52;;;;;;;;;;;13.40;90.10;;;;;;5072453;28;19908;-51
2023/10/22 10:52:17;;;;;;;;;;;13.40;90.40;;;;;;5061269;28;19908;-52
2023/10/22 10:54:57;;;;;;;;;;;13.40;90.50;;;;;;5062529;28;20258;-53
2023/10/22 10:57:41;;;;;;;;;;;13.50;90.90;;;;;;5070932;28;20007;-55
2023/10/22 11:00:09;;;;;;;;;;;13.50;90.10;;;;;;5072576;28;19948;-54
2023/10/22 11:02:41;;;;;;;;;;;13.50;89.60;;;;;;5069904;28;19922;-55
2023/10/22 11:05:08;;;;;;;;;;;13.50;89.50;;;;;;5072941;28;19914;-56
2023/10/22 11:07:38;;;;;;;;;;;13.50;89.50;;;;;;5073898;28;20007;-56
2023/10/22 11:10:11;;;;;;;;;;;13.70;89.80;;;;;;5066688;28;19987;-55
2023/10/22 11:12:41;;;;;;;;;;;13.80;89.50;;;;;;5070166;28;20241;-56
2023/10/22 11:15:09;;;;;;;;;;;13.90;89.00;;;;;;5055538;28;19913;-55
2023/10/22 11:17:38;;;;;;;;;;;13.90;88.50;;;;;;5032568;28;19974;-54
2023/10/22 11:20:06;;;;;;;;;;;13.80;88.50;;;;;;5039638;28;19916;-55
2023/10/22 11:22:32;;;;;;;;;;;13.80;88.50;;;;;;5053677;28;20054;-55
2023/10/22 11:25:05;;;;;;;;;;;13.80;88.40;;;;;;5046636;28;19919;-54
2023/10/22 11:27:32;;;;;;;;;;;13.70;88.10;;;;;;5051681;28;19915;-54
2023/10/22 11:30:00;;;;;;;;;;;13.70;88.40;;;;;;5049318;28;19909;-53
2023/10/22 11:32:26;;;;;;;;;;;13.70;88.10;;;;;;5032999;28;19917;-56
2023/10/22 11:34:54;;;;;;;;;;;13.80;87.70;;;;;;5049430;28;20483;-55
2023/10/22 11:37:36;;;;;;;;;;;13.80;87.40;;;;;;5035618;28;19909;-54
2023/10/22 11:40:24;;;;;;;;;;;13.70;86.60;;;;;;5041994;28;19917;-53
2023/10/22 11:43:03;;;;;;;;;;;13.80;85.50;;;;;;5053772;28;19906;-51
2023/10/22 11:45:34;;;;;;;;;;;13.90;83.90;;;;;;5053970;28;20428;-49
2023/10/22 11:48:14;;;;;;;;;;;13.80;83.30;;;;;;5033618;28;19920;-49
2023/10/22 11:50:44;;;;;;;;;;;13.70;83.30;;;;;;5034488;28;19913;-49
2023/10/22 11:53:11;;;;;;;;;;;13.70;83.20;;;;;;5050504;28;19955;-55
2023/10/22 11:55:38;;;;;;;;;;;13.70;83.50;;;;;;5052390;28;20037;-50
2023/10/22 11:58:06;;;;;;;;;;;13.90;83.40;;;;;;5051523;28;19973;-54
2023/10/22 12:00:33;;;;;;;;;;;14.00;82.80;;;;;;5049077;28;19912;-52
2023/10/22 12:02:59;;;;;;;;;;;14.00;81.30;;;;;;5048908;28;19955;-51
2023/10/22 12:05:26;;;;;;;;;;;14.00;80.40;;;;;;5050818;28;19955;-49
2023/10/22 12:07:53;;;;;;;;;;;14.20;78.70;;;;;;5049961;28;19916;-53
2023/10/22 12:10:22;;;;;;;;;;;14.40;77.70;;;;;;5051951;28;19917;-50
2023/10/22 12:12:49;;;;;;;;;;;14.30;76.30;;;;;;5052665;28;19913;-51
2023/10/22 12:15:15;;;;;;;;;;;14.30;75.50;;;;;;5068548;28;19912;-50
2023/10/22 12:17:44;;;;;;;;;;;14.30;76.30;;;;;;5065537;28;19912;-51
2023/10/22 12:20:12;;;;;;;;;;;14.30;77.00;;;;;;5062759;28;19921;-49
2023/10/22 12:22:39;;;;;;;;;;;14.20;75.30;;;;;;5047741;28;20019;-49
2023/10/22 12:25:07;;;;;;;;;;;14.00;74.00;;;;;;5065074;28;19949;-52
2023/10/22 12:27:32;;;;;;;;;;;14.00;73.10;;;;;;5065359;28;20356;-49
2023/10/22 12:29:58;;;;;;;;;;;13.90;73.40;;;;;;5072964;28;19983;-52
2023/10/22 12:32:24;;;;;;;;;;;13.80;74.20;;;;;;5042798;28;20023;-50
2023/10/22 12:34:52;;;;;;;;;;;13.70;74.50;;;;;;5072518;28;19919;-52
2023/10/22 12:37:19;;;;;;;;;;;13.60;74.80;;;;;;5072760;28;19908;-52
2023/10/22 12:39:46;;;;;;;;;;;13.50;74.70;;;;;;5067157;28;20265;-50
2023/10/22 12:42:13;;;;;;;;;;;13.50;76.00;;;;;;5057237;28;20361;-53
2023/10/22 12:44:43;;;;;;;;;;;13.40;76.50;;;;;;5070302;28;19966;-52
2023/10/22 12:47:12;;;;;;;;;;;13.20;77.20;;;;;;5053398;28;20054;-49
2023/10/22 12:49:41;;;;;;;;;;;13.10;78.10;;;;;;5051689;28;19959;-50
2023/10/22 12:52:11;;;;;;;;;;;13.00;79.00;;;;;;5053030;28;19904;-52
2023/10/22 12:54:38;;;;;;;;;;;13.00;80.10;;;;;;5060115;28;19915;-50
2023/10/22 12:57:06;;;;;;;;;;;12.90;80.60;;;;;;5072555;28;19904;-52
2023/10/22 12:59:35;;;;;;;;;;;12.90;81.00;;;;;;5072622;28;19970;-50
2023/10/22 13:02:00;;;;;;;;;;;12.80;81.30;;;;;;5053964;28;19948;-51
2023/10/22 13:04:26;;;;;;;;;;;12.80;81.50;;;;;;5061254;28;20013;-51
2023/10/22 13:06:56;;;;;;;;;;;12.80;82.20;;;;;;5051100;28;19916;-51
2023/10/22 13:09:22;;;;;;;;;;;12.70;82.70;;;;;;5063404;28;19912;-51
2023/10/22 13:11:49;;;;;;;;;;;12.70;83.00;;;;;;5060106;28;20275;-52
2023/10/22 13:14:22;;;;;;;;;;;12.70;83.20;;;;;;5065153;28;19965;-49
2023/10/22 13:16:48;;;;;;;;;;;12.70;83.30;;;;;;5060014;28;19916;-52
2023/10/22 13:19:16;;;;;;;;;;;12.70;83.90;;;;;;5063216;28;19921;-51
2023/10/22 13:21:43;;;;;;;;;;;12.70;83.80;;;;;;5063561;28;19908;-49
2023/10/22 13:24:08;;;;;;;;;;;12.70;83.80;;;;;;5062859;28;20015;-49
2023/10/22 13:26:34;;;;;;;;;;;12.70;83.70;;;;;;5063576;28;19995;-52
2023/10/22 13:29:06;;;;;;;;;;;12.80;83.30;;;;;;5066352;28;19916;-51
2023/10/22 13:31:52;;;;;;;;;;;12.90;83.90;;;;;;5061780;28;19951;-54
2023/10/22 13:34:18;;;;;;;;;;;12.90;83.40;;;;;;5064015;28;19912;-50
2023/10/22 13:36:44;;;;;;;;;;;13.00;83.80;;;;;;5065672;28;19920;-54
2023/10/22 13:39:11;;;;;;;;;;;13.10;82.40;;;;;;5066245;28;19916;-55
2023/10/22 13:41:41;;;;;;;;;;;13.20;82.40;;;;;;5070849;28;19908;-52
2023/10/22 13:44:07;;;;;;;;;;;13.30;82.20;;;;;;5066728;28;19923;-56
2023/10/22 13:46:34;;;;;;;;;;;13.30;80.80;;;;;;5054881;28;19962;-54
2023/10/22 13:49:04;;;;;;;;;;;13.40;80.40;;;;;;5071359;28;19909;-52
2023/10/22 13:51:30;;;;;;;;;;;13.40;79.90;;;;;;5056517;28;20369;-53
2023/10/22 13:53:55;;;;;;;;;;;13.40;80.10;;;;;;5070560;28;19995;-49
2023/10/22 13:56:22;;;;;;;;;;;13.40;79.60;;;;;;5073422;28;19909;-51
2023/10/22 13:58:48;;;;;;;;;;;13.30;79.90;;;;;;5073482;28;19958;-55
2023/10/22 14:01:16;;;;;;;;;;;13.20;80.10;;;;;;5073004;28;19915;-53
2023/10/22 14:03:43;;;;;;;;;;;13.10;79.90;;;;;;5069915;28;19912;-54
2023/10/22 14:06:10;;;;;;;;;;;13.00;79.40;;;;;;5066818;28;20421;-51
2023/10/22 14:08:35;;;;;;;;;;;13.00;79.80;;;;;;5069278;28;20336;-53
2023/10/22 14:11:03;;;;;;;;;;;13.00;79.90;;;;;;5074214;28;19908;-53
2023/10/22 14:13:30;;;;;;;;;;;13.00;80.20;;;;;;5075278;28;19912;-50
2023/10/22 14:16:06;;;;;;;;;;;13.10;80.40;;;;;;5075915;28;20360;-54
2023/10/22 14:18:32;;;;;;;;;;;13.10;80.40;;;;;;5072043;28;20234;-51
2023/10/22 14:21:10;;;;;;;;;;;13.00;80.20;;;;;;5070464;28;19974;-54